Time;durP1;ratioP1;P1;durP2;ratioP2;P2;SDS_P1;SDS_P2;PMS_P1;PMS_P2;Temp;Humidity;BMP_temperature;BMP_pressure;BME280_temperature;BME280_humidity;BME280_pressure;Samples;Min_cycle;Max_cycle;Signal;HPM_P1;HPM_P2
2022/08/08 00:00:17;;;;;;;1.98;0.98;;;15.20;99.90;;;;;;5033749;28;20029;-81
2022/08/08 00:03:13;;;;;;;2.72;1.75;;;15.10;99.90;;;;;;5050290;28;20164;-81
2022/08/08 00:06:00;;;;;;;2.80;1.52;;;15.10;99.90;;;;;;5086615;28;20059;-80
2022/08/08 00:08:49;;;;;;;2.75;1.15;;;15.10;99.90;;;;;;5080240;28;20056;-80
2022/08/08 00:11:42;;;;;;;3.50;1.27;;;15.00;99.90;;;;;;5072438;28;20031;-81
2022/08/08 00:14:30;;;;;;;2.22;0.88;;;15.10;99.90;;;;;;5087852;28;20115;-80
2022/08/08 00:17:02;;;;;;;2.58;1.08;;;15.00;99.90;;;;;;5087260;28;20024;-79
2022/08/08 00:19:53;;;;;;;2.15;1.13;;;15.00;99.90;;;;;;5086447;28;20029;-81
2022/08/08 00:22:27;;;;;;;2.65;0.95;;;14.90;99.90;;;;;;5086298;28;20056;-80
2022/08/08 00:24:59;;;;;;;2.53;1.20;;;14.90;99.90;;;;;;5088154;28;20116;-79
2022/08/08 00:27:26;;;;;;;1.85;0.90;;;15.00;99.90;;;;;;5087358;28;20016;-80
2022/08/08 00:30:00;;;;;;;4.10;0.85;;;14.90;99.90;;;;;;5089400;28;20020;-80
2022/08/08 00:32:39;;;;;;;3.88;1.38;;;14.90;99.90;;;;;;5079436;28;20051;-80
2022/08/08 00:35:26;;;;;;;3.20;1.10;;;14.80;99.90;;;;;;5087432;28;20027;-80
2022/08/08 00:38:06;;;;;;;3.95;1.13;;;14.80;99.90;;;;;;5086900;28;20289;-80
2022/08/08 00:40:38;;;;;;;2.67;1.10;;;14.80;99.90;;;;;;5087883;28;20047;-79
2022/08/08 00:43:41;;;;;;;2.47;0.95;;;14.70;99.90;;;;;;5085464;28;20032;-80
2022/08/08 00:46:38;;;;;;;1.52;0.70;;;14.70;99.90;;;;;;5087990;28;20036;-80
2022/08/08 00:49:14;;;;;;;1.88;1.05;;;14.60;99.90;;;;;;5068848;28;20070;-80
2022/08/08 00:52:02;;;;;;;3.55;1.20;;;14.70;99.90;;;;;;5068890;28;20029;-79
2022/08/08 00:54:55;;;;;;;1.70;0.98;;;14.60;99.90;;;;;;5071528;28;20119;-80
2022/08/08 00:57:40;;;;;;;1.55;0.80;;;14.60;99.90;;;;;;5085250;28;20403;-80
2022/08/08 01:00:16;;;;;;;2.40;1.08;;;14.60;99.90;;;;;;5084286;28;20024;-80
2022/08/08 01:03:04;;;;;;;2.45;1.08;;;14.60;99.90;;;;;;5084834;28;20103;-80
2022/08/08 01:06:04;;;;;;;2.78;1.38;;;14.60;99.90;;;;;;5083037;28;20078;-81
2022/08/08 01:08:52;;;;;;;2.50;1.40;;;14.50;99.90;;;;;;5078308;28;20546;-79
2022/08/08 01:11:24;;;;;;;3.85;1.20;;;14.40;99.90;;;;;;5079085;28;20031;-79
2022/08/08 01:14:31;;;;;;;3.88;1.40;;;14.30;99.90;;;;;;5098942;28;20051;-79
2022/08/08 01:17:12;;;;;;;4.10;1.23;;;14.10;99.90;;;;;;5068404;28;20032;-80
2022/08/08 01:19:56;;;;;;;2.97;1.10;;;14.10;99.90;;;;;;5087196;28;20025;-79
2022/08/08 01:22:48;;;;;;;2.50;0.95;;;14.10;99.90;;;;;;5080798;28;20052;-80
2022/08/08 01:25:32;;;;;;;1.83;1.33;;;14.10;99.90;;;;;;5076582;28;20119;-79
2022/08/08 01:28:08;;;;;;;2.70;1.35;;;14.00;99.90;;;;;;5086968;28;20039;-79
2022/08/08 01:31:14;;;;;;;2.20;1.13;;;14.00;99.90;;;;;;5065154;28;20028;-79
2022/08/08 01:33:57;;;;;;;2.03;1.17;;;13.90;99.90;;;;;;5083826;28;20016;-80
2022/08/08 01:36:51;;;;;;;3.65;1.70;;;13.80;99.90;;;;;;5066628;28;20024;-79
2022/08/08 01:39:24;;;;;;;2.70;1.25;;;13.80;99.90;;;;;;5083695;28;20138;-81
2022/08/08 01:42:18;;;;;;;4.80;1.60;;;13.80;99.90;;;;;;5068096;28;20046;-79
2022/08/08 01:45:05;;;;;;;2.78;1.42;;;13.80;99.90;;;;;;5084544;28;20612;-80
2022/08/08 01:48:03;;;;;;;2.33;1.05;;;13.80;99.90;;;;;;5067454;28;20077;-80
2022/08/08 01:50:57;;;;;;;4.18;1.30;;;13.80;99.90;;;;;;5084044;28;20074;-79
2022/08/08 01:53:41;;;;;;;3.08;1.23;;;13.80;99.90;;;;;;5072398;28;20020;-79
2022/08/08 01:56:23;;;;;;;2.70;1.58;;;13.70;99.90;;;;;;5067098;28;20023;-81
2022/08/08 01:59:33;;;;;;;3.20;1.08;;;13.80;99.90;;;;;;5087768;28;20028;-80
2022/08/08 02:02:11;;;;;;;2.72;1.35;;;13.70;99.90;;;;;;5072200;28;20062;-79
2022/08/08 02:05:07;;;;;;;2.85;1.42;;;13.70;99.90;;;;;;5088168;28;20032;-79
2022/08/08 02:08:03;;;;;;;4.28;1.83;;;13.70;99.90;;;;;;5088164;28;20070;-79
2022/08/08 02:11:12;;;;;;;2.17;1.52;;;13.80;99.90;;;;;;5080644;28;20101;-79
2022/08/08 02:14:04;;;;;;;3.28;1.13;;;13.70;99.90;;;;;;5068783;28;20035;-80
2022/08/08 02:16:59;;;;;;;2.75;0.98;;;13.70;99.90;;;;;;5087285;28;20048;-79
2022/08/08 02:19:41;;;;;;;2.47;0.98;;;13.70;99.90;;;;;;5082513;28;20028;-80
2022/08/08 02:22:32;;;;;;;2.65;1.45;;;13.60;99.90;;;;;;5081986;28;20448;-80
2022/08/08 02:25:31;;;;;;;2.67;1.45;;;13.60;99.90;;;;;;5082609;28;20373;-81
2022/08/08 02:28:00;;;;;;;3.00;1.42;;;13.60;99.90;;;;;;5036022;28;20042;-78
2022/08/08 02:30:44;;;;;;;3.40;1.52;;;13.60;99.90;;;;;;5066091;28;20027;-79
2022/08/08 02:33:38;;;;;;;2.13;1.08;;;13.60;99.90;;;;;;5088014;28;20077;-80
2022/08/08 02:36:19;;;;;;;3.38;1.38;;;13.50;99.90;;;;;;5077387;28;20419;-80
2022/08/08 02:39:20;;;;;;;3.00;1.23;;;13.60;99.90;;;;;;5087950;28;20036;-80
2022/08/08 02:42:03;;;;;;;2.45;1.30;;;13.50;99.90;;;;;;5056462;28;20086;-79
2022/08/08 02:44:49;;;;;;;2.78;1.15;;;13.50;99.90;;;;;;5076923;28;20021;-79
2022/08/08 02:47:46;;;;;;;2.70;1.10;;;13.50;99.90;;;;;;5060937;28;20059;-79
2022/08/08 02:50:32;;;;;;;2.65;1.20;;;13.50;99.90;;;;;;5083754;28;20031;-80
2022/08/08 02:53:27;;;;;;;2.28;1.30;;;13.50;99.90;;;;;;5066269;28;20641;-80
2022/08/08 02:56:01;;;;;;;3.00;1.38;;;13.50;99.90;;;;;;5027314;28;20060;-79
2022/08/08 02:59:18;;;;;;;3.58;1.63;;;13.40;99.90;;;;;;5006532;28;20036;-80
2022/08/08 03:02:45;;;;;;;2.42;1.38;;;13.40;99.90;;;;;;5027114;28;20060;-80
2022/08/08 03:05:19;;;;;;;2.90;1.38;;;13.40;99.90;;;;;;4979418;28;20050;-80
2022/08/08 03:08:03;;;;;;;2.03;1.23;;;13.20;99.90;;;;;;4980611;28;20042;-80
2022/08/08 03:10:59;;;;;;;2.22;1.23;;;13.20;99.90;;;;;;4975527;28;20030;-80
2022/08/08 03:13:52;;;;;;;2.95;1.60;;;13.20;99.90;;;;;;4998649;28;20129;-80
2022/08/08 03:16:28;;;;;;;3.45;1.52;;;13.30;99.90;;;;;;4981162;28;20034;-79
2022/08/08 03:19:02;;;;;;;2.70;1.35;;;13.20;99.90;;;;;;4976576;28;22259;-83
2022/08/08 03:21:27;;;;;;;3.58;1.77;;;13.20;99.90;;;;;;4974590;28;20606;-81
2022/08/08 03:23:53;;;;;;;3.65;1.48;;;13.20;99.90;;;;;;4997856;28;20034;-80
2022/08/08 03:26:28;;;;;;;4.32;1.67;;;13.20;99.90;;;;;;4997889;28;20043;-81
2022/08/08 03:29:00;;;;;;;2.78;1.75;;;13.10;99.90;;;;;;4999856;28;20022;-80
2022/08/08 03:34:13;;;;;;;3.67;1.75;;;13.20;99.90;;;;;;5022781;28;20384;-79
2022/08/08 03:36:41;;;;;;;3.28;1.60;;;13.10;99.90;;;;;;5003549;28;20546;-80
2022/08/08 03:39:10;;;;;;;2.45;1.70;;;13.10;99.90;;;;;;5030685;28;20044;-80
2022/08/08 03:41:36;;;;;;;2.47;1.67;;;13.00;99.90;;;;;;5071688;28;20024;-79
2022/08/08 03:44:03;;;;;;;2.67;1.48;;;13.00;99.90;;;;;;5089099;28;20078;-80
2022/08/08 03:46:46;;;;;;;2.65;1.60;;;13.00;99.90;;;;;;5086329;28;20400;-80
2022/08/08 03:49:22;;;;;;;3.08;1.30;;;13.00;99.90;;;;;;5085173;28;20429;-79
2022/08/08 03:51:54;;;;;;;6.05;2.13;;;12.90;99.90;;;;;;5074726;28;20035;-80
2022/08/08 03:54:25;;;;;;;4.65;1.52;;;13.00;99.90;;;;;;5090301;28;20020;-79
2022/08/08 03:56:51;;;;;;;2.97;1.65;;;12.90;99.90;;;;;;5091196;28;20032;-81
2022/08/08 03:59:17;;;;;;;3.33;2.55;;;12.90;99.90;;;;;;5071825;28;20020;-80
2022/08/08 04:01:44;;;;;;;3.22;1.85;;;12.80;99.90;;;;;;5090061;28;20030;-80
2022/08/08 04:04:10;;;;;;;4.05;2.00;;;12.80;99.90;;;;;;5082797;28;20042;-79
2022/08/08 04:06:39;;;;;;;4.25;1.92;;;12.80;99.90;;;;;;5082815;28;20792;-80
2022/08/08 04:09:07;;;;;;;2.30;1.45;;;12.70;99.90;;;;;;5074343;28;20093;-79
2022/08/08 04:11:38;;;;;;;3.00;2.15;;;12.80;99.90;;;;;;5085542;28;20020;-80
2022/08/08 04:14:04;;;;;;;3.20;1.48;;;12.70;99.90;;;;;;5089754;28;20053;-80
2022/08/08 04:16:30;;;;;;;3.17;2.08;;;12.80;99.90;;;;;;5091075;28;20026;-78
2022/08/08 04:18:55;;;;;;;3.15;1.52;;;12.90;99.90;;;;;;5089834;28;20020;-80
2022/08/08 04:21:22;;;;;;;2.75;1.75;;;12.90;99.90;;;;;;5088589;28;20033;-80
2022/08/08 04:23:48;;;;;;;3.00;1.88;;;12.90;99.90;;;;;;5084687;28;20043;-80
2022/08/08 04:26:14;;;;;;;4.75;2.63;;;12.90;99.90;;;;;;5086560;28;20040;-79
2022/08/08 04:28:40;;;;;;;3.00;2.25;;;12.90;99.90;;;;;;5085500;28;20024;-80
2022/08/08 04:31:05;;;;;;;4.22;2.92;;;12.90;99.90;;;;;;5084052;28;20157;-80
2022/08/08 04:33:31;;;;;;;4.05;3.30;;;12.90;99.90;;;;;;5071627;28;20054;-80
2022/08/08 04:35:57;;;;;;;4.82;3.08;;;12.90;99.90;;;;;;5069051;28;20028;-81
2022/08/08 04:38:23;;;;;;;3.95;2.08;;;13.00;99.90;;;;;;5087489;28;20097;-81
2022/08/08 04:40:52;;;;;;;2.93;1.80;;;13.10;99.90;;;;;;5073491;28;20114;-80
2022/08/08 04:43:18;;;;;;;2.83;2.10;;;13.10;99.90;;;;;;5085584;28;20279;-80
2022/08/08 04:45:49;;;;;;;2.60;1.85;;;13.10;99.90;;;;;;5088852;28;20032;-80
2022/08/08 04:48:15;;;;;;;2.90;1.85;;;13.20;99.90;;;;;;5088198;28;20107;-80
2022/08/08 04:50:42;;;;;;;3.80;1.95;;;13.20;99.90;;;;;;5081351;28;20076;-82
2022/08/08 04:53:11;;;;;;;3.30;2.40;;;13.20;99.90;;;;;;5070036;28;20024;-80
2022/08/08 04:55:38;;;;;;;3.13;2.50;;;13.20;99.90;;;;;;5087721;28;20278;-80
2022/08/08 04:58:05;;;;;;;4.97;3.20;;;13.20;99.90;;;;;;5067500;28;20063;-79
2022/08/08 05:00:30;;;;;;;6.60;4.60;;;13.20;99.90;;;;;;5068443;28;20484;-80
2022/08/08 05:02:56;;;;;;;6.97;4.03;;;13.20;99.90;;;;;;5082405;28;20464;-79
2022/08/08 05:05:22;;;;;;;4.80;3.65;;;13.20;99.90;;;;;;5073972;28;20043;-81
2022/08/08 05:07:48;;;;;;;4.43;3.17;;;13.20;99.90;;;;;;5068436;28;20074;-80
2022/08/08 05:10:14;;;;;;;5.60;3.47;;;13.20;99.90;;;;;;5059919;28;20036;-82
2022/08/08 05:12:41;;;;;;;5.97;4.35;;;13.30;99.90;;;;;;5084480;28;20115;-80
2022/08/08 05:15:07;;;;;;;4.55;3.38;;;13.40;99.90;;;;;;5069836;28;20021;-80
2022/08/08 05:17:33;;;;;;;4.30;3.55;;;13.40;99.90;;;;;;5079370;28;20119;-81
2022/08/08 05:19:58;;;;;;;6.90;4.18;;;13.50;99.90;;;;;;5077914;28;20103;-80
2022/08/08 05:22:29;;;;;;;6.55;4.10;;;13.50;99.90;;;;;;5052608;28;20395;-82
2022/08/08 05:24:55;;;;;;;5.85;4.22;;;13.60;99.90;;;;;;5069813;28;20040;-79
2022/08/08 05:27:21;;;;;;;5.70;4.88;;;13.60;99.90;;;;;;5083365;28;20411;-80
2022/08/08 05:29:49;;;;;;;7.47;4.65;;;13.60;99.90;;;;;;5062711;28;20028;-79
2022/08/08 05:32:14;;;;;;;8.70;6.43;;;13.60;99.90;;;;;;5070490;28;20032;-80
2022/08/08 05:34:49;;;;;;;6.60;5.85;;;13.60;99.90;;;;;;5078271;28;20357;-80
2022/08/08 05:37:23;;;;;;;6.10;5.07;;;13.70;99.90;;;;;;5072974;28;20388;-81
2022/08/08 05:39:53;;;;;;;10.23;8.02;;;13.80;99.90;;;;;;5052394;28;20055;-81
2022/08/08 05:42:29;;;;;;;9.02;6.63;;;13.80;99.90;;;;;;5069395;28;20447;-79
2022/08/08 05:44:58;;;;;;;6.20;4.57;;;13.90;99.90;;;;;;5069022;28;20396;-80
2022/08/08 05:47:24;;;;;;;6.57;4.38;;;14.10;99.90;;;;;;5069644;28;20506;-80
2022/08/08 05:49:50;;;;;;;7.35;5.10;;;14.20;99.90;;;;;;5074055;28;20024;-81
2022/08/08 05:52:16;;;;;;;5.55;4.20;;;14.30;99.90;;;;;;5079803;28;20032;-81
2022/08/08 05:54:42;;;;;;;5.03;4.35;;;14.40;99.90;;;;;;5079166;28;20480;-83
2022/08/08 05:57:13;;;;;;;9.13;5.30;;;14.60;99.90;;;;;;5056347;28;20039;-81
2022/08/08 05:59:42;;;;;;;5.18;3.85;;;14.70;99.90;;;;;;5069751;28;20039;-81
2022/08/08 06:05:03;;;;;;;6.28;3.05;;;15.00;99.90;;;;;;5062032;28;20420;-81
2022/08/08 06:07:31;;;;;;;3.30;2.20;;;15.20;99.90;;;;;;5051921;28;20023;-80
2022/08/08 06:10:00;;;;;;;4.20;1.80;;;15.40;99.90;;;;;;5050210;28;20036;-80
2022/08/08 06:12:27;;;;;;;4.28;1.83;;;15.60;99.90;;;;;;5051779;28;20776;-81
2022/08/08 06:14:53;;;;;;;3.72;1.70;;;15.70;99.90;;;;;;5061810;28;20111;-81
2022/08/08 06:17:20;;;;;;;4.22;2.97;;;15.80;99.90;;;;;;5080140;28;20039;-81
2022/08/08 06:19:53;;;;;;;3.25;1.88;;;16.00;99.90;;;;;;5066816;28;20047;-80
2022/08/08 06:22:19;;;;;;;5.13;2.22;;;16.10;99.90;;;;;;5063535;28;20059;-81
2022/08/08 06:24:49;;;;;;;5.07;2.00;;;16.30;99.90;;;;;;5077546;28;20027;-81
2022/08/08 06:27:18;;;;;;;6.35;2.00;;;16.50;99.90;;;;;;5062779;28;20032;-82
2022/08/08 06:30:01;;;;;;;4.88;1.40;;;16.70;99.90;;;;;;5078417;28;20024;-81
2022/08/08 06:32:42;;;;;;;4.15;1.67;;;16.90;99.90;;;;;;5079381;28;20027;-81
2022/08/08 06:35:11;;;;;;;2.25;0.90;;;17.10;99.90;;;;;;5077187;28;20043;-81
2022/08/08 06:37:53;;;;;;;1.25;0.60;;;17.40;99.90;;;;;;5063230;28;20056;-80
2022/08/08 06:40:24;;;;;;;4.63;1.25;;;17.60;99.90;;;;;;5055531;28;20039;-81
2022/08/08 06:42:56;;;;;;;2.38;0.88;;;17.50;99.90;;;;;;5082652;28;20115;-81
2022/08/08 06:45:26;;;;;;;3.13;1.23;;;17.60;99.90;;;;;;5075267;28;20049;-81
2022/08/08 06:47:52;;;;;;;3.15;0.60;;;17.60;99.90;;;;;;5076956;28;20032;-81
2022/08/08 06:50:18;;;;;;;1.60;0.70;;;17.80;99.90;;;;;;5069216;28;20447;-81
2022/08/08 06:52:45;;;;;;;3.45;0.60;;;18.00;99.90;;;;;;5080332;28;20032;-81
2022/08/08 06:55:11;;;;;;;1.83;0.60;;;18.00;99.90;;;;;;5080301;28;20051;-81
2022/08/08 06:57:37;;;;;;;4.15;1.20;;;18.10;99.90;;;;;;5070514;28;20066;-82
2022/08/08 07:00:05;;;;;;;2.35;0.90;;;18.10;99.90;;;;;;5069810;28;20106;-81
2022/08/08 07:02:34;;;;;;;2.97;0.95;;;17.90;99.90;;;;;;5068840;28;20047;-81
2022/08/08 07:05:09;;;;;;;1.85;0.75;;;17.90;99.90;;;;;;5081632;28;20028;-80
2022/08/08 07:07:59;;;;;;;2.58;0.85;;;18.30;99.90;;;;;;5091989;28;20029;-81
2022/08/08 07:10:35;;;;;;;4.35;0.80;;;18.40;99.90;;;;;;5069560;28;20028;-81
2022/08/08 07:13:09;;;;;;;2.78;0.88;;;18.50;99.90;;;;;;5070317;28;20029;-81
2022/08/08 07:16:11;;;;;;;3.67;0.70;;;18.30;99.90;;;;;;5053769;28;20081;-81
2022/08/08 07:19:07;;;;;;;2.72;0.70;;;18.60;99.90;;;;;;5052513;28;20035;-81
2022/08/08 07:22:01;;;;;;;3.95;0.70;;;18.70;99.90;;;;;;5075858;28;20020;-81
2022/08/08 07:24:49;;;;;;;1.20;0.32;;;19.20;99.90;;;;;;5049488;28;20058;-81
2022/08/08 07:27:22;;;;;;;2.15;0.63;;;19.60;99.90;;;;;;5049320;28;20040;-83
2022/08/08 07:29:47;;;;;;;2.05;0.60;;;19.90;99.90;;;;;;5065106;28;20039;-81
2022/08/08 07:32:14;;;;;;;1.67;0.45;;;19.80;99.90;;;;;;5053822;28;20029;-81
2022/08/08 07:34:41;;;;;;;1.40;0.30;;;19.90;99.90;;;;;;5065964;28;20035;-81
2022/08/08 07:37:11;;;;;;;;;;;20.20;99.90;;;;;;5055101;28;20032;-82
2022/08/08 07:39:40;;;;;;;2.58;0.40;;;19.80;99.90;;;;;;5063103;28;20368;-80
2022/08/08 07:42:10;;;;;;;1.20;0.30;;;20.00;99.90;;;;;;5058595;28;20036;-80
2022/08/08 07:44:37;;;;;;;0.93;0.30;;;20.20;99.90;;;;;;5091265;28;20024;-80
2022/08/08 07:47:03;;;;;;;2.67;0.30;;;20.40;99.90;;;;;;5054266;28;20396;-83
2022/08/08 07:49:29;;;;;;;2.50;0.40;;;20.20;99.90;;;;;;5077102;28;20031;-80
2022/08/08 07:51:56;;;;;;;2.92;0.40;;;20.00;99.90;;;;;;5077158;28;20028;-80
2022/08/08 07:55:12;;;;;;;0.75;0.20;;;20.40;99.90;;;;;;5080230;28;20146;-79
2022/08/08 07:57:50;;;;;;;0.80;0.30;;;20.90;99.90;;;;;;4981293;28;20028;-80
2022/08/08 08:00:20;;;;;;;1.10;0.30;;;21.00;99.90;;;;;;4985960;28;20040;-83
2022/08/08 08:03:10;;;;;;;2.45;0.40;;;21.00;99.90;;;;;;5000303;28;20034;-82
2022/08/08 08:05:41;;;;;;;3.42;0.40;;;20.30;99.90;;;;;;4986539;28;20139;-82
2022/08/08 08:08:18;;;;;;;1.63;0.40;;;20.70;99.90;;;;;;5019719;28;20033;-81
2022/08/08 08:10:54;;;;;;;1.73;0.30;;;21.10;99.90;;;;;;5001285;28;20580;-82
2022/08/08 08:14:05;;;;;;;0.50;0.20;;;21.60;99.90;;;;;;4978527;28;20125;-81
2022/08/08 08:16:37;;;;;;;1.42;0.20;;;21.80;99.90;;;;;;4980108;28;20038;-82
2022/08/08 08:19:05;;;;;;;1.13;0.40;;;22.00;99.90;;;;;;4983203;28;20149;-82
2022/08/08 08:21:46;;;;;;;1.25;0.20;;;22.00;99.90;;;;;;5017777;28;20030;-82
2022/08/08 08:24:19;;;;;;;5.35;0.50;;;21.50;99.90;;;;;;4989487;28;20038;-82
2022/08/08 08:26:45;;;;;;;1.95;0.50;;;21.30;99.90;;;;;;5001308;28;20049;-83
2022/08/08 08:29:10;;;;;;;4.60;0.40;;;22.10;99.90;;;;;;4982169;28;20391;-82
2022/08/08 08:31:38;;;;;;;1.40;0.15;;;21.70;99.90;;;;;;5033734;28;20554;-82
2022/08/08 08:34:04;;;;;;;1.77;0.20;;;22.10;99.90;;;;;;5056323;28;20028;-82
2022/08/08 08:36:33;;;;;;;1.38;0.20;;;22.50;99.90;;;;;;5074209;28;20070;-82
2022/08/08 08:39:00;;;;;;;1.77;0.30;;;22.40;99.90;;;;;;5061179;28;20040;-82
2022/08/08 08:41:33;;;;;;;1.17;0.20;;;21.50;99.90;;;;;;5080925;28;20139;-82
2022/08/08 08:44:01;;;;;;;0.43;0.10;;;21.60;99.90;;;;;;5081302;28;20052;-81
2022/08/08 08:46:29;;;;;;;1.52;0.20;;;22.30;99.90;;;;;;5067780;28;20165;-82
2022/08/08 08:48:56;;;;;;;0.85;0.10;;;22.30;99.90;;;;;;5077090;28;20425;-82
2022/08/08 08:51:26;;;;;;;1.38;0.20;;;22.20;99.90;;;;;;5067529;28;20416;-82
2022/08/08 08:53:55;;;;;;;2.38;0.20;;;22.20;99.90;;;;;;5084103;28;20062;-83
2022/08/08 08:56:25;;;;;;;1.95;0.10;;;21.70;99.90;;;;;;5080018;28;20032;-81
2022/08/08 08:58:58;;;;;;;0.30;0.10;;;22.10;99.90;;;;;;5068628;28;20134;-83
2022/08/08 09:01:32;;;;;;;0.52;0.03;;;22.70;99.90;;;;;;5081809;28;20400;-82
2022/08/08 09:04:14;;;;;;;1.05;0.13;;;23.20;99.90;;;;;;5058976;28;20023;-83
2022/08/08 09:06:41;;;;;;;1.65;0.20;;;22.50;99.90;;;;;;5076917;28;20036;-83
2022/08/08 09:09:20;;;;;;;0.65;0.10;;;22.30;99.90;;;;;;5077807;28;20024;-83
2022/08/08 09:11:47;;;;;;;1.10;0.10;;;22.30;99.90;;;;;;5078584;28;20177;-82
2022/08/08 09:14:14;;;;;;;0.35;0.10;;;22.70;99.90;;;;;;5083268;28;21148;-83
2022/08/08 09:16:42;;;;;;;0.50;0.00;;;23.30;99.90;;;;;;5077013;28;20024;-83
2022/08/08 09:19:09;;;;;;;1.15;0.10;;;23.30;99.90;;;;;;5066321;28;20027;-82
2022/08/08 09:21:36;;;;;;;0.75;0.10;;;22.90;99.90;;;;;;5084125;28;20390;-85
2022/08/08 09:24:03;;;;;;;1.45;0.10;;;23.30;99.90;;;;;;5061744;28;20040;-84
2022/08/08 09:26:36;;;;;;;1.08;0.10;;;22.90;99.90;;;;;;5078206;28;20032;-82
2022/08/08 09:29:05;;;;;;;2.08;0.10;;;23.30;99.90;;;;;;5083086;28;20055;-83
2022/08/08 09:31:54;;;;;;;1.00;0.10;;;23.30;99.90;;;;;;5077728;28;20392;-83
2022/08/08 09:34:24;;;;;;;0.73;0.10;;;22.50;99.90;;;;;;5060555;28;20051;-83
2022/08/08 09:37:00;;;;;;;1.90;0.13;;;22.70;99.90;;;;;;5060685;28;20080;-83
2022/08/08 09:39:29;;;;;;;1.35;0.22;;;23.00;99.90;;;;;;5056722;28;20045;-83
2022/08/08 09:42:03;;;;;;;0.45;0.10;;;23.20;99.90;;;;;;5082754;28;20021;-83
2022/08/08 09:44:47;;;;;;;1.33;0.10;;;23.30;99.90;;;;;;5062090;28;20685;-84
2022/08/08 09:47:14;;;;;;;3.75;0.10;;;23.10;99.90;;;;;;5062038;28;20024;-83
2022/08/08 09:49:42;;;;;;;2.05;0.20;;;22.80;99.90;;;;;;5085246;28;20392;-83
2022/08/08 09:52:07;;;;;;;0.80;0.10;;;23.10;99.90;;;;;;5077613;28;20032;-82
2022/08/08 09:54:43;;;;;;;1.40;0.10;;;23.30;99.90;;;;;;5082736;28;20036;-82
2022/08/08 09:57:10;;;;;;;0.50;0.10;;;24.20;99.90;;;;;;5060922;28;20488;-83
2022/08/08 09:59:40;;;;;;;0.50;0.10;;;24.80;99.90;;;;;;5082918;28;20437;-82
2022/08/08 10:02:17;;;;;;;1.52;0.22;;;24.00;99.90;;;;;;5073588;28;20106;-82
2022/08/08 10:04:43;;;;;;;0.73;0.10;;;23.50;99.90;;;;;;5082589;28;20103;-82
2022/08/08 10:07:12;;;;;;;1.92;0.20;;;23.00;99.90;;;;;;5065416;28;20499;-82
2022/08/08 10:09:42;;;;;;;1.80;0.10;;;23.20;99.90;;;;;;5062465;28;20115;-82
2022/08/08 10:12:08;;;;;;;;;;;23.20;99.90;;;;;;5078760;28;20028;-83
2022/08/08 10:14:35;;;;;;;0.68;0.10;;;23.10;99.90;;;;;;5084067;28;20318;-82
2022/08/08 10:17:06;;;;;;;0.95;0.10;;;22.50;99.90;;;;;;5073949;28;20506;-82
2022/08/08 10:19:36;;;;;;;0.82;0.10;;;22.30;99.90;;;;;;5065518;28;20059;-81
2022/08/08 10:22:04;;;;;;;1.52;0.20;;;22.50;99.90;;;;;;5077464;28;20032;-82
2022/08/08 10:24:30;;;;;;;0.85;0.20;;;22.30;99.90;;;;;;5078013;28;20020;-82
2022/08/08 10:27:04;;;;;;;2.60;0.10;;;22.20;99.90;;;;;;5082379;28;20043;-82
2022/08/08 10:29:53;;;;;;;0.90;0.08;;;22.50;99.90;;;;;;5064071;28;20531;-82
2022/08/08 10:32:31;;;;;;;0.50;0.10;;;23.60;99.90;;;;;;5073699;28;20485;-82
2022/08/08 10:34:58;;;;;;;1.38;0.10;;;24.00;99.90;;;;;;5059270;28;20028;-82
2022/08/08 10:37:32;;;;;;;0.93;0.10;;;23.20;99.90;;;;;;5078218;28;20032;-82
2022/08/08 10:40:10;;;;;;;0.85;0.10;;;22.30;99.90;;;;;;5078613;28;20101;-82
2022/08/08 10:42:37;;;;;;;0.75;0.10;;;22.60;99.90;;;;;;5079769;28;20020;-82
2022/08/08 10:45:05;;;;;;;1.05;0.10;;;22.90;99.90;;;;;;5061769;28;20039;-81
2022/08/08 10:47:31;;;;;;;2.00;0.10;;;23.00;99.90;;;;;;5073318;28;20036;-82
2022/08/08 10:50:00;;;;;;;0.57;0.10;;;23.40;99.90;;;;;;5082578;28;20031;-82
2022/08/08 10:52:34;;;;;;;0.28;0.00;;;24.30;99.90;;;;;;5074932;28;20086;-83
2022/08/08 10:55:14;;;;;;;0.10;0.00;;;25.40;99.90;;;;;;5074270;28;20039;-83
2022/08/08 10:57:42;;;;;;;0.38;0.00;;;24.80;99.90;;;;;;5076579;28;20089;-82
2022/08/08 11:00:10;;;;;;;0.90;0.10;;;23.80;99.90;;;;;;5075219;28;20103;-83
2022/08/08 11:02:36;;;;;;;1.15;0.10;;;23.70;99.90;;;;;;5077750;28;20198;-83
2022/08/08 11:05:13;;;;;;;0.93;0.10;;;23.30;99.90;;;;;;5081447;28;20265;-83
2022/08/08 11:07:47;;;;;;;0.82;0.10;;;22.70;99.90;;;;;;5060297;28;20116;-81
2022/08/08 11:10:15;;;;;;;0.60;0.10;;;22.70;99.90;;;;;;5076610;28;20372;-82
2022/08/08 11:13:07;;;;;;;0.73;0.20;;;23.10;99.90;;;;;;5082278;28;20051;-82
2022/08/08 11:15:33;;;;;;;1.38;0.10;;;23.50;99.90;;;;;;5072029;28;20040;-82
2022/08/08 11:18:00;;;;;;;0.70;0.10;;;24.10;99.90;;;;;;5066505;28;20476;-82
2022/08/08 11:20:27;;;;;;;0.68;0.10;;;24.00;99.90;;;;;;5065682;28;20399;-81
2022/08/08 11:22:55;;;;;;;0.60;0.10;;;23.00;99.90;;;;;;5075693;28;20024;-82
2022/08/08 11:25:24;;;;;;;0.40;0.10;;;22.70;99.90;;;;;;5065756;28;20040;-82
2022/08/08 11:27:53;;;;;;;1.00;0.10;;;22.50;99.90;;;;;;5073043;28;20169;-82
2022/08/08 11:30:22;;;;;;;0.73;0.10;;;22.70;99.90;;;;;;5077582;28;20043;-82
2022/08/08 11:32:49;;;;;;;1.48;0.10;;;23.00;99.90;;;;;;5063650;28;20371;-82
2022/08/08 11:35:16;;;;;;;0.73;0.03;;;23.40;99.90;;;;;;5080848;28;20032;-81
2022/08/08 11:37:42;;;;;;;0.82;0.10;;;23.50;99.90;;;;;;5086741;28;20033;-81
2022/08/08 11:40:13;;;;;;;0.52;0.20;;;23.40;99.90;;;;;;5081076;28;20036;-81
2022/08/08 11:42:40;;;;;;;2.67;0.15;;;23.50;99.90;;;;;;5080667;28;20028;-82
2022/08/08 11:45:08;;;;;;;1.30;0.28;;;23.70;99.90;;;;;;5076485;28;20032;-82
2022/08/08 11:47:35;;;;;;;0.50;0.10;;;24.60;99.90;;;;;;5078789;28;20044;-83
2022/08/08 11:50:05;;;;;;;0.88;0.10;;;24.40;99.90;;;;;;5086194;28;20032;-82
2022/08/08 11:52:32;;;;;;;1.15;0.10;;;24.30;99.90;;;;;;5078719;28;20028;-85
2022/08/08 11:54:58;;;;;;;0.25;0.00;;;24.80;99.90;;;;;;5064227;28;20115;-84
2022/08/08 11:57:28;;;;;;;1.15;0.10;;;24.50;99.90;;;;;;5083557;28;20043;-84
2022/08/08 11:59:57;;;;;;;1.45;0.10;;;23.50;99.90;;;;;;5082456;28;20029;-85
2022/08/08 12:02:25;;;;;;;0.80;0.10;;;22.70;99.90;;;;;;5078988;28;20024;-84
2022/08/08 12:05:05;;;;;;;0.80;0.10;;;22.70;99.90;;;;;;5082173;28;20496;-82
2022/08/08 12:07:42;;;;;;;1.10;0.10;;;23.40;99.90;;;;;;5078907;28;20032;-84
2022/08/08 12:10:12;;;;;;;0.65;0.10;;;24.40;99.90;;;;;;5068663;28;20833;-83
2022/08/08 12:12:46;;;;;;;1.58;0.10;;;23.90;99.90;;;;;;5080463;28;20387;-83
2022/08/08 12:15:23;;;;;;;0.55;0.00;;;23.80;99.90;;;;;;5080928;28;20036;-84
2022/08/08 12:17:49;;;;;;;1.20;0.10;;;24.00;99.90;;;;;;5079357;28;20040;-83
2022/08/08 12:20:14;;;;;;;1.63;0.10;;;23.80;99.90;;;;;;5084256;28;20044;-83
2022/08/08 12:22:51;;;;;;;0.73;0.10;;;23.60;99.90;;;;;;5067165;28;20049;-81
2022/08/08 12:25:25;;;;;;;0.43;0.00;;;24.30;99.90;;;;;;5084540;28;20021;-84
2022/08/08 12:27:52;;;;;;;0.70;0.13;;;25.10;99.90;;;;;;5085645;28;20028;-83
2022/08/08 12:30:30;;;;;;;0.88;0.10;;;24.90;99.90;;;;;;5078869;28;20112;-85
2022/08/08 12:32:58;;;;;;;0.38;0.00;;;25.10;99.90;;;;;;5064921;28;20063;-82
2022/08/08 12:35:26;;;;;;;1.15;0.10;;;24.90;99.90;;;;;;5082083;28;22428;-82
2022/08/08 12:38:11;;;;;;;0.60;0.05;;;24.80;99.90;;;;;;5078021;28;20518;-81
2022/08/08 12:40:47;;;;;;;0.75;0.00;;;25.30;99.90;;;;;;5082773;28;20132;-81
2022/08/08 12:43:18;;;;;;;0.38;0.10;;;25.30;99.90;;;;;;5077080;28;20021;-81
2022/08/08 12:45:45;;;;;;;0.25;0.00;;;24.90;99.90;;;;;;5078803;28;20750;-81
2022/08/08 12:48:20;;;;;;;0.93;0.10;;;25.80;99.90;;;;;;5079358;28;21235;-85
2022/08/08 12:50:49;;;;;;;1.40;0.32;;;25.50;99.90;;;;;;5081510;28;20039;-84
2022/08/08 12:53:19;;;;;;;0.85;0.10;;;24.70;99.90;;;;;;5080714;28;20032;-83
2022/08/08 12:55:57;;;;;;;;;;;24.30;99.90;;;;;;5060709;28;20420;-84
2022/08/08 12:58:24;;;;;;;1.67;0.10;;;24.40;99.90;;;;;;5068575;28;20581;-80
2022/08/08 13:00:50;;;;;;;0.30;0.03;;;25.10;99.90;;;;;;5084736;28;20487;-81
2022/08/08 13:03:27;;;;;;;0.98;0.10;;;25.60;99.90;;;;;;5084254;28;20029;-82
2022/08/08 13:06:04;;;;;;;0.50;0.10;;;25.60;99.90;;;;;;5081063;28;20071;-83
2022/08/08 13:08:41;;;;;;;1.20;0.10;;;25.40;99.90;;;;;;5083901;28;20039;-83
2022/08/08 13:11:26;;;;;;;2.08;0.10;;;24.80;99.90;;;;;;5062518;28;20028;-83
2022/08/08 13:13:59;;;;;;;0.75;0.08;;;25.20;99.90;;;;;;5061095;28;20032;-87
2022/08/08 13:16:26;;;;;;;1.85;0.00;;;24.70;99.90;;;;;;5075812;28;20032;-85
2022/08/08 13:18:56;;;;;;;1.40;0.10;;;25.40;99.90;;;;;;5073514;28;20056;-82
2022/08/08 13:21:23;;;;;;;1.92;0.10;;;25.60;99.90;;;;;;5077021;28;20081;-83
2022/08/08 13:23:48;;;;;;;1.35;0.00;;;25.20;99.90;;;;;;5077468;28;20039;-83
2022/08/08 13:26:14;;;;;;;1.55;0.10;;;24.60;99.90;;;;;;5080395;28;20040;-81
2022/08/08 13:28:40;;;;;;;1.63;0.10;;;24.60;99.90;;;;;;5065330;28;20043;-85
2022/08/08 13:31:11;;;;;;;1.17;0.03;;;24.10;99.90;;;;;;5081828;28;20036;-81